sensor_id;sensor_type;location;lat;lon;timestamp;temperature;humidity
21163;DHT22;10739;52.198;20.908;2023-03-03T00:00:52;-1.20;99.90
21163;DHT22;10739;52.198;20.908;2023-03-03T00:03:21;-1.20;99.90
21163;DHT22;10739;52.198;20.908;2023-03-03T00:05:50;-1.30;99.90
21163;DHT22;10739;52.198;20.908;2023-03-03T00:08:18;-1.30;99.90
21163;DHT22;10739;52.198;20.908;2023-03-03T00:10:45;-1.30;99.90
21163;DHT22;10739;52.198;20.908;2023-03-03T00:13:15;-1.30;99.90
21163;DHT22;10739;52.198;20.908;2023-03-03T00:15:53;-1.30;99.90
21163;DHT22;10739;52.198;20.908;2023-03-03T00:18:36;-1.30;99.90
21163;DHT22;10739;52.198;20.908;2023-03-03T00:23:51;-1.40;99.90
21163;DHT22;10739;52.198;20.908;2023-03-03T00:26:35;-1.30;99.90
21163;DHT22;10739;52.198;20.908;2023-03-03T00:29:26;-1.30;99.90
21163;DHT22;10739;52.198;20.908;2023-03-03T00:31:54;-1.30;99.90
21163;DHT22;10739;52.198;20.908;2023-03-03T00:34:27;-1.40;99.90
21163;DHT22;10739;52.198;20.908;2023-03-03T00:36:56;-1.40;99.90
21163;DHT22;10739;52.198;20.908;2023-03-03T00:39:37;-1.40;99.90
21163;DHT22;10739;52.198;20.908;2023-03-03T00:42:14;-1.40;99.90
21163;DHT22;10739;52.198;20.908;2023-03-03T00:44:46;-1.40;99.90
21163;DHT22;10739;52.198;20.908;2023-03-03T00:52:38;-1.40;99.90
21163;DHT22;10739;52.198;20.908;2023-03-03T00:55:07;-1.40;99.90
21163;DHT22;10739;52.198;20.908;2023-03-03T00:57:35;-1.40;99.90
21163;DHT22;10739;52.198;20.908;2023-03-03T01:00:03;-1.40;99.90
21163;DHT22;10739;52.198;20.908;2023-03-03T01:02:30;-1.40;99.90
21163;DHT22;10739;52.198;20.908;2023-03-03T01:04:56;-1.40;99.90
21163;DHT22;10739;52.198;20.908;2023-03-03T01:07:23;-1.40;99.90
21163;DHT22;10739;52.198;20.908;2023-03-03T01:09:52;-1.40;99.90
21163;DHT22;10739;52.198;20.908;2023-03-03T01:12:18;-1.40;99.90
21163;DHT22;10739;52.198;20.908;2023-03-03T01:14:45;-1.40;99.90
21163;DHT22;10739;52.198;20.908;2023-03-03T01:17:13;-1.40;99.90
21163;DHT22;10739;52.198;20.908;2023-03-03T01:19:40;-1.40;99.90
21163;DHT22;10739;52.198;20.908;2023-03-03T01:22:06;-1.40;99.90
21163;DHT22;10739;52.198;20.908;2023-03-03T01:24:32;-1.50;99.90
21163;DHT22;10739;52.198;20.908;2023-03-03T01:26:59;-1.50;99.90
21163;DHT22;10739;52.198;20.908;2023-03-03T01:29:25;-1.40;99.90
21163;DHT22;10739;52.198;20.908;2023-03-03T01:31:51;-1.50;99.90
21163;DHT22;10739;52.198;20.908;2023-03-03T01:34:18;-1.50;99.90
21163;DHT22;10739;52.198;20.908;2023-03-03T01:36:44;-1.60;99.90
21163;DHT22;10739;52.198;20.908;2023-03-03T01:39:11;-1.60;99.90
21163;DHT22;10739;52.198;20.908;2023-03-03T01:41:38;-1.60;99.90
21163;DHT22;10739;52.198;20.908;2023-03-03T01:44:05;-1.60;99.90
21163;DHT22;10739;52.198;20.908;2023-03-03T01:49:22;-1.60;99.90
21163;DHT22;10739;52.198;20.908;2023-03-03T01:52:02;-1.60;99.90
21163;DHT22;10739;52.198;20.908;2023-03-03T01:54:37;-1.60;99.90
21163;DHT22;10739;52.198;20.908;2023-03-03T01:57:13;-1.60;99.90
21163;DHT22;10739;52.198;20.908;2023-03-03T01:59:47;-1.60;99.90
21163;DHT22;10739;52.198;20.908;2023-03-03T02:02:16;-1.70;99.90
21163;DHT22;10739;52.198;20.908;2023-03-03T02:04:44;-1.70;99.90
21163;DHT22;10739;52.198;20.908;2023-03-03T02:07:11;-1.70;99.90
21163;DHT22;10739;52.198;20.908;2023-03-03T02:15:27;-1.70;99.90
21163;DHT22;10739;52.198;20.908;2023-03-03T02:18:04;-1.70;99.90
21163;DHT22;10739;52.198;20.908;2023-03-03T02:20:45;-1.70;99.90
21163;DHT22;10739;52.198;20.908;2023-03-03T02:23:30;-1.70;99.90
21163;DHT22;10739;52.198;20.908;2023-03-03T02:26:30;-1.70;99.90
21163;DHT22;10739;52.198;20.908;2023-03-03T02:28:59;-1.70;99.90
21163;DHT22;10739;52.198;20.908;2023-03-03T02:31:28;-1.70;99.90
21163;DHT22;10739;52.198;20.908;2023-03-03T02:33:56;-1.70;99.90
21163;DHT22;10739;52.198;20.908;2023-03-03T02:39:08;-1.70;99.90
21163;DHT22;10739;52.198;20.908;2023-03-03T02:42:25;-1.70;99.90
21163;DHT22;10739;52.198;20.908;2023-03-03T02:44:54;-1.70;99.90
21163;DHT22;10739;52.198;20.908;2023-03-03T02:47:20;-1.70;99.90
21163;DHT22;10739;52.198;20.908;2023-03-03T02:49:47;-1.70;99.90
21163;DHT22;10739;52.198;20.908;2023-03-03T02:52:13;-1.70;99.90
21163;DHT22;10739;52.198;20.908;2023-03-03T02:54:42;-1.70;99.90
21163;DHT22;10739;52.198;20.908;2023-03-03T02:57:08;-1.70;99.90
21163;DHT22;10739;52.198;20.908;2023-03-03T02:59:35;-1.80;99.90
21163;DHT22;10739;52.198;20.908;2023-03-03T03:02:02;-1.80;99.90
21163;DHT22;10739;52.198;20.908;2023-03-03T03:04:28;-1.80;99.90
21163;DHT22;10739;52.198;20.908;2023-03-03T03:06:55;-1.80;99.90
21163;DHT22;10739;52.198;20.908;2023-03-03T03:09:23;-1.80;99.90
21163;DHT22;10739;52.198;20.908;2023-03-03T03:11:51;-1.80;99.90
21163;DHT22;10739;52.198;20.908;2023-03-03T03:14:17;-1.90;99.90
21163;DHT22;10739;52.198;20.908;2023-03-03T03:16:44;-1.80;99.90
21163;DHT22;10739;52.198;20.908;2023-03-03T03:19:10;-1.90;99.90
21163;DHT22;10739;52.198;20.908;2023-03-03T03:21:37;-1.90;99.90
21163;DHT22;10739;52.198;20.908;2023-03-03T03:24:04;-1.90;99.90
21163;DHT22;10739;52.198;20.908;2023-03-03T03:26:30;-1.90;99.90
21163;DHT22;10739;52.198;20.908;2023-03-03T03:28:57;-1.90;99.90
21163;DHT22;10739;52.198;20.908;2023-03-03T03:31:23;-1.90;99.90
21163;DHT22;10739;52.198;20.908;2023-03-03T03:33:50;-1.90;99.90
21163;DHT22;10739;52.198;20.908;2023-03-03T03:36:17;-1.90;99.90
21163;DHT22;10739;52.198;20.908;2023-03-03T03:38:43;-1.80;99.90
21163;DHT22;10739;52.198;20.908;2023-03-03T03:41:11;-1.80;99.90
21163;DHT22;10739;52.198;20.908;2023-03-03T03:43:39;-1.80;99.90
21163;DHT22;10739;52.198;20.908;2023-03-03T03:46:06;-1.80;99.90
21163;DHT22;10739;52.198;20.908;2023-03-03T03:48:33;-1.80;99.90
21163;DHT22;10739;52.198;20.908;2023-03-03T03:51:00;-1.80;99.90
21163;DHT22;10739;52.198;20.908;2023-03-03T03:53:26;-1.80;99.90
21163;DHT22;10739;52.198;20.908;2023-03-03T03:55:53;-1.80;99.90
21163;DHT22;10739;52.198;20.908;2023-03-03T03:58:19;-1.80;99.90
21163;DHT22;10739;52.198;20.908;2023-03-03T04:00:46;-1.80;99.90
21163;DHT22;10739;52.198;20.908;2023-03-03T04:03:14;-1.80;99.90
21163;DHT22;10739;52.198;20.908;2023-03-03T04:05:41;-1.90;99.90
21163;DHT22;10739;52.198;20.908;2023-03-03T04:08:08;-1.90;99.90
21163;DHT22;10739;52.198;20.908;2023-03-03T04:10:34;-1.90;99.90
21163;DHT22;10739;52.198;20.908;2023-03-03T04:13:01;-1.90;99.90
21163;DHT22;10739;52.198;20.908;2023-03-03T04:15:27;-1.90;99.90
21163;DHT22;10739;52.198;20.908;2023-03-03T04:17:53;-1.90;99.90
21163;DHT22;10739;52.198;20.908;2023-03-03T04:20:19;-1.90;99.90
21163;DHT22;10739;52.198;20.908;2023-03-03T04:22:46;-1.90;99.90
21163;DHT22;10739;52.198;20.908;2023-03-03T04:25:14;-1.90;99.90
21163;DHT22;10739;52.198;20.908;2023-03-03T04:27:42;-2.00;99.90
21163;DHT22;10739;52.198;20.908;2023-03-03T04:30:10;-2.00;99.90
21163;DHT22;10739;52.198;20.908;2023-03-03T04:32:37;-2.00;99.90
21163;DHT22;10739;52.198;20.908;2023-03-03T04:35:04;-2.00;99.90
21163;DHT22;10739;52.198;20.908;2023-03-03T04:37:30;-2.00;99.90
21163;DHT22;10739;52.198;20.908;2023-03-03T04:39:57;-2.10;99.90
21163;DHT22;10739;52.198;20.908;2023-03-03T04:42:23;-2.10;99.90
21163;DHT22;10739;52.198;20.908;2023-03-03T04:44:49;-2.10;99.90
21163;DHT22;10739;52.198;20.908;2023-03-03T04:47:16;-2.10;99.90
21163;DHT22;10739;52.198;20.908;2023-03-03T04:49:42;-2.20;99.90
21163;DHT22;10739;52.198;20.908;2023-03-03T04:52:08;-2.20;99.90
21163;DHT22;10739;52.198;20.908;2023-03-03T04:54:35;-2.20;99.90
21163;DHT22;10739;52.198;20.908;2023-03-03T04:57:01;-2.20;99.90
21163;DHT22;10739;52.198;20.908;2023-03-03T04:59:27;-2.20;99.90
21163;DHT22;10739;52.198;20.908;2023-03-03T05:01:54;-2.30;99.90
21163;DHT22;10739;52.198;20.908;2023-03-03T05:04:20;-2.30;99.90
21163;DHT22;10739;52.198;20.908;2023-03-03T05:06:46;-2.00;99.90
21163;DHT22;10739;52.198;20.908;2023-03-03T05:09:13;-2.30;99.90
21163;DHT22;10739;52.198;20.908;2023-03-03T05:11:39;-2.30;99.90
21163;DHT22;10739;52.198;20.908;2023-03-03T05:14:05;-2.30;99.90
21163;DHT22;10739;52.198;20.908;2023-03-03T05:16:33;-2.30;99.90
21163;DHT22;10739;52.198;20.908;2023-03-03T05:18:59;-2.30;99.90
21163;DHT22;10739;52.198;20.908;2023-03-03T05:21:25;-2.30;99.90
21163;DHT22;10739;52.198;20.908;2023-03-03T05:23:51;-2.30;99.90
21163;DHT22;10739;52.198;20.908;2023-03-03T05:26:18;-2.40;99.90
21163;DHT22;10739;52.198;20.908;2023-03-03T05:28:44;-2.30;99.90
21163;DHT22;10739;52.198;20.908;2023-03-03T05:31:10;-2.30;99.90
21163;DHT22;10739;52.198;20.908;2023-03-03T05:33:37;-2.30;99.90
21163;DHT22;10739;52.198;20.908;2023-03-03T05:36:03;-2.20;99.90
21163;DHT22;10739;52.198;20.908;2023-03-03T05:38:29;-2.20;99.90
21163;DHT22;10739;52.198;20.908;2023-03-03T05:40:56;-2.20;99.90
21163;DHT22;10739;52.198;20.908;2023-03-03T05:43:22;-2.30;99.90
21163;DHT22;10739;52.198;20.908;2023-03-03T05:45:54;-2.30;99.90
21163;DHT22;10739;52.198;20.908;2023-03-03T05:48:21;-2.30;99.90
21163;DHT22;10739;52.198;20.908;2023-03-03T05:50:48;-2.20;99.90
21163;DHT22;10739;52.198;20.908;2023-03-03T05:53:14;-2.20;99.90
21163;DHT22;10739;52.198;20.908;2023-03-03T05:55:40;-2.10;99.90
21163;DHT22;10739;52.198;20.908;2023-03-03T05:58:07;-2.10;99.90
21163;DHT22;10739;52.198;20.908;2023-03-03T06:00:33;-2.10;99.90
21163;DHT22;10739;52.198;20.908;2023-03-03T06:03:00;-2.10;99.90
21163;DHT22;10739;52.198;20.908;2023-03-03T06:05:26;-2.00;99.90
21163;DHT22;10739;52.198;20.908;2023-03-03T06:07:53;-2.10;99.90
21163;DHT22;10739;52.198;20.908;2023-03-03T06:10:19;-2.10;99.90
21163;DHT22;10739;52.198;20.908;2023-03-03T06:12:45;-2.10;99.90
21163;DHT22;10739;52.198;20.908;2023-03-03T06:15:11;-2.00;99.90
21163;DHT22;10739;52.198;20.908;2023-03-03T06:17:38;-2.10;99.90
21163;DHT22;10739;52.198;20.908;2023-03-03T06:20:05;-2.10;99.90
21163;DHT22;10739;52.198;20.908;2023-03-03T06:22:31;-2.00;99.90
21163;DHT22;10739;52.198;20.908;2023-03-03T06:24:58;-2.00;99.90
21163;DHT22;10739;52.198;20.908;2023-03-03T06:27:24;-2.00;99.90
21163;DHT22;10739;52.198;20.908;2023-03-03T06:29:50;-2.00;99.90
21163;DHT22;10739;52.198;20.908;2023-03-03T06:32:17;-2.10;99.90
21163;DHT22;10739;52.198;20.908;2023-03-03T06:34:44;-2.10;99.90
21163;DHT22;10739;52.198;20.908;2023-03-03T06:37:10;-2.10;99.90
21163;DHT22;10739;52.198;20.908;2023-03-03T06:39:36;-2.10;99.90
21163;DHT22;10739;52.198;20.908;2023-03-03T06:42:02;-2.00;99.90
21163;DHT22;10739;52.198;20.908;2023-03-03T06:44:29;-2.00;99.90
21163;DHT22;10739;52.198;20.908;2023-03-03T06:46:55;-2.00;99.90
21163;DHT22;10739;52.198;20.908;2023-03-03T06:49:22;-1.90;99.90
21163;DHT22;10739;52.198;20.908;2023-03-03T06:51:49;-2.00;99.90
21163;DHT22;10739;52.198;20.908;2023-03-03T06:54:21;-1.90;99.90
21163;DHT22;10739;52.198;20.908;2023-03-03T06:56:59;-2.00;99.90
21163;DHT22;10739;52.198;20.908;2023-03-03T06:59:33;-1.90;99.90
21163;DHT22;10739;52.198;20.908;2023-03-03T07:01:59;-1.80;99.90
21163;DHT22;10739;52.198;20.908;2023-03-03T07:04:31;-1.80;99.90
21163;DHT22;10739;52.198;20.908;2023-03-03T07:09:51;-1.80;99.90
21163;DHT22;10739;52.198;20.908;2023-03-03T07:12:27;-1.70;99.90
21163;DHT22;10739;52.198;20.908;2023-03-03T07:15:11;-1.70;99.90
21163;DHT22;10739;52.198;20.908;2023-03-03T07:17:46;-1.70;99.90
21163;DHT22;10739;52.198;20.908;2023-03-03T07:20:22;-1.60;99.90
21163;DHT22;10739;52.198;20.908;2023-03-03T07:22:52;-1.60;99.90
21163;DHT22;10739;52.198;20.908;2023-03-03T07:25:25;-1.60;99.90
21163;DHT22;10739;52.198;20.908;2023-03-03T07:27:53;-1.60;99.90
21163;DHT22;10739;52.198;20.908;2023-03-03T07:30:27;-1.50;99.90
21163;DHT22;10739;52.198;20.908;2023-03-03T07:32:56;-1.40;99.90
21163;DHT22;10739;52.198;20.908;2023-03-03T07:35:39;-1.40;99.90
21163;DHT22;10739;52.198;20.908;2023-03-03T07:38:33;-1.40;99.90
21163;DHT22;10739;52.198;20.908;2023-03-03T07:41:17;-1.50;99.90
21163;DHT22;10739;52.198;20.908;2023-03-03T07:43:54;-1.40;99.90
21163;DHT22;10739;52.198;20.908;2023-03-03T07:46:43;-1.20;99.90
21163;DHT22;10739;52.198;20.908;2023-03-03T07:49:33;-1.30;99.90
21163;DHT22;10739;52.198;20.908;2023-03-03T07:52:26;-1.20;99.90
21163;DHT22;10739;52.198;20.908;2023-03-03T07:57:53;-1.10;99.90
21163;DHT22;10739;52.198;20.908;2023-03-03T08:03:07;-1.10;99.90
21163;DHT22;10739;52.198;20.908;2023-03-03T08:05:43;-1.20;99.90
21163;DHT22;10739;52.198;20.908;2023-03-03T08:08:25;-1.10;99.90
21163;DHT22;10739;52.198;20.908;2023-03-03T08:10:57;-1.10;99.90
21163;DHT22;10739;52.198;20.908;2023-03-03T08:18:46;-1.00;99.90
21163;DHT22;10739;52.198;20.908;2023-03-03T08:21:19;-0.90;99.90
21163;DHT22;10739;52.198;20.908;2023-03-03T08:23:46;-0.80;99.90
21163;DHT22;10739;52.198;20.908;2023-03-03T08:26:17;-0.80;99.90
21163;DHT22;10739;52.198;20.908;2023-03-03T08:28:45;-0.80;99.90
21163;DHT22;10739;52.198;20.908;2023-03-03T08:31:12;-0.80;99.90
21163;DHT22;10739;52.198;20.908;2023-03-03T08:33:39;-0.80;99.90
21163;DHT22;10739;52.198;20.908;2023-03-03T08:36:07;-0.80;99.90
21163;DHT22;10739;52.198;20.908;2023-03-03T08:38:33;-0.70;99.90
21163;DHT22;10739;52.198;20.908;2023-03-03T08:41:00;-0.70;99.90
21163;DHT22;10739;52.198;20.908;2023-03-03T08:43:27;-0.80;99.90
21163;DHT22;10739;52.198;20.908;2023-03-03T08:45:59;-0.90;99.90
21163;DHT22;10739;52.198;20.908;2023-03-03T08:48:27;-0.90;99.90
21163;DHT22;10739;52.198;20.908;2023-03-03T08:50:54;-0.80;99.90
21163;DHT22;10739;52.198;20.908;2023-03-03T08:53:22;-0.80;99.90
21163;DHT22;10739;52.198;20.908;2023-03-03T08:55:49;-0.80;99.90
21163;DHT22;10739;52.198;20.908;2023-03-03T08:58:17;-0.60;99.90
21163;DHT22;10739;52.198;20.908;2023-03-03T09:00:45;-0.70;99.90
21163;DHT22;10739;52.198;20.908;2023-03-03T09:03:11;-0.80;99.90
21163;DHT22;10739;52.198;20.908;2023-03-03T09:05:39;-0.80;99.90
21163;DHT22;10739;52.198;20.908;2023-03-03T09:08:08;-0.80;99.90
21163;DHT22;10739;52.198;20.908;2023-03-03T09:10:35;-0.70;99.90
21163;DHT22;10739;52.198;20.908;2023-03-03T09:13:16;-0.70;99.90
21163;DHT22;10739;52.198;20.908;2023-03-03T09:15:44;-0.70;99.90
21163;DHT22;10739;52.198;20.908;2023-03-03T09:18:17;-0.70;99.90
21163;DHT22;10739;52.198;20.908;2023-03-03T09:20:50;-0.70;99.90
21163;DHT22;10739;52.198;20.908;2023-03-03T09:26:27;-0.60;99.90
21163;DHT22;10739;52.198;20.908;2023-03-03T09:31:51;-0.50;99.90
21163;DHT22;10739;52.198;20.908;2023-03-03T09:34:40;-0.60;99.90
21163;DHT22;10739;52.198;20.908;2023-03-03T09:37:21;-0.60;99.90
21163;DHT22;10739;52.198;20.908;2023-03-03T09:39:54;-0.50;99.90
21163;DHT22;10739;52.198;20.908;2023-03-03T09:46:03;-0.50;99.90
21163;DHT22;10739;52.198;20.908;2023-03-03T10:01:42;-0.50;99.90
21163;DHT22;10739;52.198;20.908;2023-03-03T10:04:43;-0.60;99.90
21163;DHT22;10739;52.198;20.908;2023-03-03T10:07:39;-0.50;99.90
21163;DHT22;10739;52.198;20.908;2023-03-03T10:19:02;-0.40;99.90
21163;DHT22;10739;52.198;20.908;2023-03-03T10:21:53;-0.40;99.90
21163;DHT22;10739;52.198;20.908;2023-03-03T10:24:52;-0.30;99.90
21163;DHT22;10739;52.198;20.908;2023-03-03T10:34:06;-0.50;99.90
21163;DHT22;10739;52.198;20.908;2023-03-03T10:42:55;-0.60;99.90
21163;DHT22;10739;52.198;20.908;2023-03-03T10:51:52;-0.80;99.90
21163;DHT22;10739;52.198;20.908;2023-03-03T10:54:45;-0.70;99.90
21163;DHT22;10739;52.198;20.908;2023-03-03T10:57:33;-0.70;99.90
21163;DHT22;10739;52.198;20.908;2023-03-03T11:00:15;-0.60;99.90
21163;DHT22;10739;52.198;20.908;2023-03-03T11:08:28;-0.80;99.90
21163;DHT22;10739;52.198;20.908;2023-03-03T11:22:45;-0.70;99.90
21163;DHT22;10739;52.198;20.908;2023-03-03T11:25:37;-0.70;99.90
21163;DHT22;10739;52.198;20.908;2023-03-03T11:28:54;-0.80;99.90
21163;DHT22;10739;52.198;20.908;2023-03-03T11:31:32;-0.90;99.90
21163;DHT22;10739;52.198;20.908;2023-03-03T11:37:23;-0.90;99.90
21163;DHT22;10739;52.198;20.908;2023-03-03T11:40:25;-0.90;99.90
21163;DHT22;10739;52.198;20.908;2023-03-03T11:45:44;-0.90;99.90
21163;DHT22;10739;52.198;20.908;2023-03-03T11:48:29;-0.90;99.90
21163;DHT22;10739;52.198;20.908;2023-03-03T11:54:02;-0.80;99.90
21163;DHT22;10739;52.198;20.908;2023-03-03T12:04:43;-0.70;99.90
21163;DHT22;10739;52.198;20.908;2023-03-03T12:10:31;-0.60;99.90
21163;DHT22;10739;52.198;20.908;2023-03-03T12:13:29;-0.60;99.90
21163;DHT22;10739;52.198;20.908;2023-03-03T12:25:00;-0.50;99.90
21163;DHT22;10739;52.198;20.908;2023-03-03T12:30:43;-0.50;99.90
21163;DHT22;10739;52.198;20.908;2023-03-03T12:33:29;-0.50;99.90
21163;DHT22;10739;52.198;20.908;2023-03-03T12:39:39;-0.70;99.90
21163;DHT22;10739;52.198;20.908;2023-03-03T12:42:19;-0.90;99.90
21163;DHT22;10739;52.198;20.908;2023-03-03T12:45:14;-0.90;99.90
21163;DHT22;10739;52.198;20.908;2023-03-03T12:48:00;-0.90;99.90
21163;DHT22;10739;52.198;20.908;2023-03-03T12:53:54;-1.00;99.90
21163;DHT22;10739;52.198;20.908;2023-03-03T12:56:54;-1.00;99.90
21163;DHT22;10739;52.198;20.908;2023-03-03T13:04:46;-0.90;99.90
21163;DHT22;10739;52.198;20.908;2023-03-03T13:07:37;-1.00;99.90
21163;DHT22;10739;52.198;20.908;2023-03-03T13:10:22;-0.90;99.90
21163;DHT22;10739;52.198;20.908;2023-03-03T13:16:13;-0.80;99.90
21163;DHT22;10739;52.198;20.908;2023-03-03T13:18:56;-0.90;99.90
21163;DHT22;10739;52.198;20.908;2023-03-03T13:22:12;-1.00;99.90
21163;DHT22;10739;52.198;20.908;2023-03-03T13:27:14;-1.00;99.90
21163;DHT22;10739;52.198;20.908;2023-03-03T13:32:48;-0.90;99.90
21163;DHT22;10739;52.198;20.908;2023-03-03T13:35:44;-0.90;99.90
21163;DHT22;10739;52.198;20.908;2023-03-03T13:44:11;-0.90;99.90
21163;DHT22;10739;52.198;20.908;2023-03-03T13:46:55;-0.80;99.90
21163;DHT22;10739;52.198;20.908;2023-03-03T13:52:26;-0.80;99.90
21163;DHT22;10739;52.198;20.908;2023-03-03T13:57:59;-0.80;99.90
21163;DHT22;10739;52.198;20.908;2023-03-03T14:01:00;-0.80;99.90
21163;DHT22;10739;52.198;20.908;2023-03-03T14:03:58;-0.90;99.90
21163;DHT22;10739;52.198;20.908;2023-03-03T14:06:56;-0.90;99.90
21163;DHT22;10739;52.198;20.908;2023-03-03T14:15:25;-0.90;99.90
21163;DHT22;10739;52.198;20.908;2023-03-03T14:20:52;-0.80;99.90
21163;DHT22;10739;52.198;20.908;2023-03-03T14:24:06;-0.90;99.90
21163;DHT22;10739;52.198;20.908;2023-03-03T14:26:13;-0.80;99.90
21163;DHT22;10739;52.198;20.908;2023-03-03T14:28:45;-0.70;99.90
21163;DHT22;10739;52.198;20.908;2023-03-03T14:36:50;-0.70;99.90
21163;DHT22;10739;52.198;20.908;2023-03-03T14:39:38;-0.70;99.90
21163;DHT22;10739;52.198;20.908;2023-03-03T14:42:34;-0.90;99.90
21163;DHT22;10739;52.198;20.908;2023-03-03T14:45:20;-0.90;99.90
21163;DHT22;10739;52.198;20.908;2023-03-03T14:47:57;-0.80;99.90
21163;DHT22;10739;52.198;20.908;2023-03-03T14:50:41;-0.90;99.90
21163;DHT22;10739;52.198;20.908;2023-03-03T14:53:36;-0.80;99.90
21163;DHT22;10739;52.198;20.908;2023-03-03T14:56:25;-0.80;99.90
21163;DHT22;10739;52.198;20.908;2023-03-03T15:02:07;-0.90;99.90
21163;DHT22;10739;52.198;20.908;2023-03-03T15:04:40;-0.90;99.90
21163;DHT22;10739;52.198;20.908;2023-03-03T15:07:36;-0.90;99.90
21163;DHT22;10739;52.198;20.908;2023-03-03T15:10:05;-0.90;99.90
21163;DHT22;10739;52.198;20.908;2023-03-03T15:17:54;-0.80;99.90
21163;DHT22;10739;52.198;20.908;2023-03-03T15:20:41;-0.70;99.90
21163;DHT22;10739;52.198;20.908;2023-03-03T15:26:43;-0.80;99.90
21163;DHT22;10739;52.198;20.908;2023-03-03T15:34:41;-0.70;99.90
21163;DHT22;10739;52.198;20.908;2023-03-03T15:40:32;-0.70;99.90
21163;DHT22;10739;52.198;20.908;2023-03-03T15:46:34;-0.70;99.90
21163;DHT22;10739;52.198;20.908;2023-03-03T16:01:26;-0.80;99.90
21163;DHT22;10739;52.198;20.908;2023-03-03T16:04:30;-0.80;99.90
21163;DHT22;10739;52.198;20.908;2023-03-03T16:07:21;-0.90;99.90
21163;DHT22;10739;52.198;20.908;2023-03-03T16:10:18;-0.90;99.90
21163;DHT22;10739;52.198;20.908;2023-03-03T16:18:54;-0.80;99.90
21163;DHT22;10739;52.198;20.908;2023-03-03T16:24:22;-0.80;99.90
21163;DHT22;10739;52.198;20.908;2023-03-03T16:32:47;-0.80;99.90
21163;DHT22;10739;52.198;20.908;2023-03-03T16:35:32;-0.80;99.90
21163;DHT22;10739;52.198;20.908;2023-03-03T16:38:21;-0.80;99.90
21163;DHT22;10739;52.198;20.908;2023-03-03T16:40:54;-0.80;99.90
21163;DHT22;10739;52.198;20.908;2023-03-03T16:49:20;-0.80;99.90
21163;DHT22;10739;52.198;20.908;2023-03-03T16:52:17;-0.80;99.90
21163;DHT22;10739;52.198;20.908;2023-03-03T17:04:01;-0.70;99.90
21163;DHT22;10739;52.198;20.908;2023-03-03T17:07:02;-0.80;99.90
21163;DHT22;10739;52.198;20.908;2023-03-03T17:15:51;-0.90;99.90
21163;DHT22;10739;52.198;20.908;2023-03-03T17:22:11;-0.90;99.90
21163;DHT22;10739;52.198;20.908;2023-03-03T17:25:02;-0.80;99.90
21163;DHT22;10739;52.198;20.908;2023-03-03T17:30:47;-0.80;99.90
21163;DHT22;10739;52.198;20.908;2023-03-03T17:45:26;-0.90;99.90
21163;DHT22;10739;52.198;20.908;2023-03-03T17:50:31;-0.90;99.90
21163;DHT22;10739;52.198;20.908;2023-03-03T17:53:51;-0.90;99.90
21163;DHT22;10739;52.198;20.908;2023-03-03T18:22:47;-0.90;99.90
21163;DHT22;10739;52.198;20.908;2023-03-03T18:25:21;-1.00;99.90
21163;DHT22;10739;52.198;20.908;2023-03-03T18:28:20;-1.00;99.90
21163;DHT22;10739;52.198;20.908;2023-03-03T18:30:59;-1.00;99.90
21163;DHT22;10739;52.198;20.908;2023-03-03T18:33:43;-1.00;99.90
21163;DHT22;10739;52.198;20.908;2023-03-03T18:38:59;-0.90;99.90
21163;DHT22;10739;52.198;20.908;2023-03-03T18:41:32;-0.90;99.90
21163;DHT22;10739;52.198;20.908;2023-03-03T18:44:37;-0.90;99.90
21163;DHT22;10739;52.198;20.908;2023-03-03T18:47:03;-0.90;99.90
21163;DHT22;10739;52.198;20.908;2023-03-03T18:49:50;-0.80;99.90
21163;DHT22;10739;52.198;20.908;2023-03-03T18:52:25;-0.80;99.90
21163;DHT22;10739;52.198;20.908;2023-03-03T18:57:38;-0.80;99.90
21163;DHT22;10739;52.198;20.908;2023-03-03T19:00:14;-0.90;99.90
21163;DHT22;10739;52.198;20.908;2023-03-03T19:02:52;-0.80;99.90
21163;DHT22;10739;52.198;20.908;2023-03-03T19:05:36;-0.80;99.90
21163;DHT22;10739;52.198;20.908;2023-03-03T19:08:29;-0.80;
21163;DHT22;10739;52.198;20.908;2023-03-03T19:16:51;-0.80;99.90
21163;DHT22;10739;52.198;20.908;2023-03-03T19:19:22;-0.80;99.90
21163;DHT22;10739;52.198;20.908;2023-03-03T19:22:26;-0.70;99.90
21163;DHT22;10739;52.198;20.908;2023-03-03T19:40:22;-0.80;99.90
21163;DHT22;10739;52.198;20.908;2023-03-03T19:46:09;-0.70;99.90
21163;DHT22;10739;52.198;20.908;2023-03-03T20:00:08;-0.70;99.90
21163;DHT22;10739;52.198;20.908;2023-03-03T20:08:54;-0.70;99.90
21163;DHT22;10739;52.198;20.908;2023-03-03T20:14:49;-0.60;99.90
21163;DHT22;10739;52.198;20.908;2023-03-03T20:23:33;-0.60;99.90
21163;DHT22;10739;52.198;20.908;2023-03-03T20:32:19;-0.50;99.90
21163;DHT22;10739;52.198;20.908;2023-03-03T20:35:43;-0.50;99.90
21163;DHT22;10739;52.198;20.908;2023-03-03T20:38:36;-0.50;99.90
21163;DHT22;10739;52.198;20.908;2023-03-03T20:41:22;-0.50;99.90
21163;DHT22;10739;52.198;20.908;2023-03-03T20:49:55;-0.40;99.90
21163;DHT22;10739;52.198;20.908;2023-03-03T20:56:01;-0.40;99.90
21163;DHT22;10739;52.198;20.908;2023-03-03T21:01:47;-0.40;99.90
21163;DHT22;10739;52.198;20.908;2023-03-03T21:04:31;-0.30;99.90
21163;DHT22;10739;52.198;20.908;2023-03-03T21:07:02;-0.30;99.90
21163;DHT22;10739;52.198;20.908;2023-03-03T21:09:35;-0.30;99.90
21163;DHT22;10739;52.198;20.908;2023-03-03T21:12:11;-0.40;99.90
21163;DHT22;10739;52.198;20.908;2023-03-03T21:15:00;-0.30;99.90
21163;DHT22;10739;52.198;20.908;2023-03-03T21:17:30;-0.40;99.90
21163;DHT22;10739;52.198;20.908;2023-03-03T21:22:55;-0.30;99.90
21163;DHT22;10739;52.198;20.908;2023-03-03T21:25:49;-0.30;99.90
21163;DHT22;10739;52.198;20.908;2023-03-03T21:28:31;-0.30;99.90
21163;DHT22;10739;52.198;20.908;2023-03-03T21:36:21;-0.20;99.90
21163;DHT22;10739;52.198;20.908;2023-03-03T21:38:56;-0.30;99.90
21163;DHT22;10739;52.198;20.908;2023-03-03T21:41:23;-0.30;99.90
21163;DHT22;10739;52.198;20.908;2023-03-03T21:43:51;-0.20;99.90
21163;DHT22;10739;52.198;20.908;2023-03-03T21:46:20;-0.20;99.90
21163;DHT22;10739;52.198;20.908;2023-03-03T21:48:49;-0.20;99.90
21163;DHT22;10739;52.198;20.908;2023-03-03T21:51:16;-0.20;99.90
21163;DHT22;10739;52.198;20.908;2023-03-03T21:53:45;-0.20;99.90
21163;DHT22;10739;52.198;20.908;2023-03-03T21:56:12;-0.20;99.90
21163;DHT22;10739;52.198;20.908;2023-03-03T21:58:42;-0.10;99.90
21163;DHT22;10739;52.198;20.908;2023-03-03T22:01:08;-0.10;99.90
21163;DHT22;10739;52.198;20.908;2023-03-03T22:03:35;-0.20;99.90
21163;DHT22;10739;52.198;20.908;2023-03-03T22:06:01;-0.20;99.90
21163;DHT22;10739;52.198;20.908;2023-03-03T22:08:28;-0.20;99.90
21163;DHT22;10739;52.198;20.908;2023-03-03T22:10:54;-0.20;99.90
21163;DHT22;10739;52.198;20.908;2023-03-03T22:13:22;-0.20;99.90
21163;DHT22;10739;52.198;20.908;2023-03-03T22:15:49;-0.20;99.90
21163;DHT22;10739;52.198;20.908;2023-03-03T22:18:16;-0.10;99.90
21163;DHT22;10739;52.198;20.908;2023-03-03T22:20:44;-0.10;99.90
21163;DHT22;10739;52.198;20.908;2023-03-03T22:23:12;-0.10;99.90